sensor_id;sensor_type;location;lat;lon;timestamp;pressure;altitude;pressure_sealevel;temperature;humidity
36502;BME280;25393;46.108;3.390;2023-05-14T00:01:35;97988.28;;;10.30;100.00
36502;BME280;25393;46.108;3.390;2023-05-14T00:04:02;97981.81;;;10.25;100.00
36502;BME280;25393;46.108;3.390;2023-05-14T00:06:29;97976.16;;;10.28;100.00
36502;BME280;25393;46.108;3.390;2023-05-14T00:08:57;97966.09;;;10.23;100.00
36502;BME280;25393;46.108;3.390;2023-05-14T00:11:23;97975.53;;;10.26;100.00
36502;BME280;25393;46.108;3.390;2023-05-14T00:13:50;97960.81;;;10.23;100.00
36502;BME280;25393;46.108;3.390;2023-05-14T00:16:16;97970.72;;;10.21;100.00
36502;BME280;25393;46.108;3.390;2023-05-14T00:18:43;97975.38;;;10.19;100.00
36502;BME280;25393;46.108;3.390;2023-05-14T00:21:09;97964.09;;;10.09;100.00
36502;BME280;25393;46.108;3.390;2023-05-14T00:23:37;97963.59;;;10.06;100.00
36502;BME280;25393;46.108;3.390;2023-05-14T00:26:03;97971.38;;;10.07;100.00
36502;BME280;25393;46.108;3.390;2023-05-14T00:28:30;97975.84;;;10.07;100.00
36502;BME280;25393;46.108;3.390;2023-05-14T00:30:56;97969.41;;;10.01;100.00
36502;BME280;25393;46.108;3.390;2023-05-14T00:33:23;97979.66;;;10.12;100.00
36502;BME280;25393;46.108;3.390;2023-05-14T00:35:49;97985.47;;;10.16;100.00
36502;BME280;25393;46.108;3.390;2023-05-14T00:38:16;97947.88;;;10.04;100.00
36502;BME280;25393;46.108;3.390;2023-05-14T00:40:45;97964.09;;;10.33;100.00
36502;BME280;25393;46.108;3.390;2023-05-14T00:43:20;97964.25;;;10.32;100.00
36502;BME280;25393;46.108;3.390;2023-05-14T00:45:51;97974.50;;;10.35;100.00
36502;BME280;25393;46.108;3.390;2023-05-14T00:48:19;97974.16;;;10.38;100.00
36502;BME280;25393;46.108;3.390;2023-05-14T00:50:47;97975.81;;;10.39;100.00
36502;BME280;25393;46.108;3.390;2023-05-14T00:53:15;97959.13;;;10.30;100.00
36502;BME280;25393;46.108;3.390;2023-05-14T00:55:41;97958.47;;;10.28;100.00
36502;BME280;25393;46.108;3.390;2023-05-14T00:58:11;97952.03;;;10.23;100.00
36502;BME280;25393;46.108;3.390;2023-05-14T01:00:39;97951.19;;;10.30;100.00
36502;BME280;25393;46.108;3.390;2023-05-14T01:03:07;97952.81;;;10.31;100.00
36502;BME280;25393;46.108;3.390;2023-05-14T01:05:55;97949.53;;;10.29;100.00
36502;BME280;25393;46.108;3.390;2023-05-14T01:11:25;97950.22;;;10.23;100.00
36502;BME280;25393;46.108;3.390;2023-05-14T01:14:02;97950.53;;;10.20;100.00
36502;BME280;25393;46.108;3.390;2023-05-14T01:16:36;97954.00;;;10.21;100.00
36502;BME280;25393;46.108;3.390;2023-05-14T01:19:20;97947.06;;;10.20;100.00
36502;BME280;25393;46.108;3.390;2023-05-14T01:21:47;97931.19;;;10.20;100.00
36502;BME280;25393;46.108;3.390;2023-05-14T01:24:13;97943.94;;;10.16;100.00
36502;BME280;25393;46.108;3.390;2023-05-14T01:26:40;97936.94;;;10.07;100.00
36502;BME280;25393;46.108;3.390;2023-05-14T01:29:18;97936.63;;;10.02;100.00
36502;BME280;25393;46.108;3.390;2023-05-14T01:31:48;97943.25;;;10.06;100.00
36502;BME280;25393;46.108;3.390;2023-05-14T01:34:19;97920.09;;;9.92;100.00
36502;BME280;25393;46.108;3.390;2023-05-14T01:36:46;97949.19;;;10.00;100.00
36502;BME280;25393;46.108;3.390;2023-05-14T01:39:14;97952.19;;;9.97;100.00
36502;BME280;25393;46.108;3.390;2023-05-14T01:41:41;97943.44;;;9.72;100.00
36502;BME280;25393;46.108;3.390;2023-05-14T01:44:13;97953.97;;;9.40;100.00
36502;BME280;25393;46.108;3.390;2023-05-14T01:46:40;97945.19;;;9.23;100.00
36502;BME280;25393;46.108;3.390;2023-05-14T01:49:07;97926.34;;;9.10;100.00
36502;BME280;25393;46.108;3.390;2023-05-14T01:51:34;97934.75;;;9.06;100.00
36502;BME280;25393;46.108;3.390;2023-05-14T01:54:00;97938.25;;;9.22;100.00
36502;BME280;25393;46.108;3.390;2023-05-14T01:56:27;97944.03;;;9.26;100.00
36502;BME280;25393;46.108;3.390;2023-05-14T01:58:53;97933.97;;;9.21;100.00
36502;BME280;25393;46.108;3.390;2023-05-14T02:01:21;97943.88;;;9.27;100.00
36502;BME280;25393;46.108;3.390;2023-05-14T02:03:48;97939.59;;;9.34;100.00
36502;BME280;25393;46.108;3.390;2023-05-14T02:06:15;97922.59;;;9.45;100.00
36502;BME280;25393;46.108;3.390;2023-05-14T02:08:44;97921.59;;;9.54;100.00
36502;BME280;25393;46.108;3.390;2023-05-14T02:11:12;97930.38;;;9.71;100.00
36502;BME280;25393;46.108;3.390;2023-05-14T02:13:38;97938.44;;;9.85;100.00
36502;BME280;25393;46.108;3.390;2023-05-14T02:16:05;97935.81;;;9.93;100.00
36502;BME280;25393;46.108;3.390;2023-05-14T02:18:31;97932.66;;;10.06;100.00
36502;BME280;25393;46.108;3.390;2023-05-14T02:20:58;97945.56;;;10.25;100.00
36502;BME280;25393;46.108;3.390;2023-05-14T02:23:24;97938.59;;;10.32;100.00
36502;BME280;25393;46.108;3.390;2023-05-14T02:26:06;97937.91;;;10.38;100.00
36502;BME280;25393;46.108;3.390;2023-05-14T02:28:33;97953.94;;;10.45;100.00
36502;BME280;25393;46.108;3.390;2023-05-14T02:31:00;97943.19;;;10.46;100.00
36502;BME280;25393;46.108;3.390;2023-05-14T02:33:27;97939.19;;;10.50;100.00
36502;BME280;25393;46.108;3.390;2023-05-14T02:35:53;97948.47;;;10.55;100.00
36502;BME280;25393;46.108;3.390;2023-05-14T02:38:21;97938.72;;;10.47;100.00
36502;BME280;25393;46.108;3.390;2023-05-14T02:40:48;97948.63;;;10.53;100.00
36502;BME280;25393;46.108;3.390;2023-05-14T02:43:14;97951.28;;;10.53;100.00
36502;BME280;25393;46.108;3.390;2023-05-14T02:45:41;97946.16;;;10.51;100.00
36502;BME280;25393;46.108;3.390;2023-05-14T02:48:07;97938.84;;;10.62;100.00
36502;BME280;25393;46.108;3.390;2023-05-14T02:50:34;97927.22;;;10.63;100.00
36502;BME280;25393;46.108;3.390;2023-05-14T02:53:00;97927.53;;;10.68;100.00
36502;BME280;25393;46.108;3.390;2023-05-14T02:55:27;97936.78;;;10.80;100.00
36502;BME280;25393;46.108;3.390;2023-05-14T02:57:53;97929.81;;;10.79;100.00
36502;BME280;25393;46.108;3.390;2023-05-14T03:00:20;97932.13;;;10.82;100.00
36502;BME280;25393;46.108;3.390;2023-05-14T03:02:47;97946.13;;;10.98;100.00
36502;BME280;25393;46.108;3.390;2023-05-14T03:05:15;97929.38;;;10.98;100.00
36502;BME280;25393;46.108;3.390;2023-05-14T03:07:42;97942.47;;;10.99;100.00
36502;BME280;25393;46.108;3.390;2023-05-14T03:10:08;97926.53;;;10.69;100.00
36502;BME280;25393;46.108;3.390;2023-05-14T03:12:35;97935.66;;;10.66;100.00
36502;BME280;25393;46.108;3.390;2023-05-14T03:15:02;97925.09;;;10.58;100.00
36502;BME280;25393;46.108;3.390;2023-05-14T03:17:29;97894.91;;;10.12;100.00
36502;BME280;25393;46.108;3.390;2023-05-14T03:19:55;97911.47;;;9.98;100.00
36502;BME280;25393;46.108;3.390;2023-05-14T03:22:22;97906.03;;;9.83;100.00
36502;BME280;25393;46.108;3.390;2023-05-14T03:24:48;97915.47;;;9.94;100.00
36502;BME280;25393;46.108;3.390;2023-05-14T03:27:15;97909.81;;;9.97;100.00
36502;BME280;25393;46.108;3.390;2023-05-14T03:29:43;97919.56;;;9.96;100.00
36502;BME280;25393;46.108;3.390;2023-05-14T03:32:10;97919.41;;;10.06;100.00
36502;BME280;25393;46.108;3.390;2023-05-14T03:34:37;97900.75;;;9.91;100.00
36502;BME280;25393;46.108;3.390;2023-05-14T03:37:03;97907.16;;;9.97;100.00
36502;BME280;25393;46.108;3.390;2023-05-14T03:39:30;97901.22;;;9.79;100.00
36502;BME280;25393;46.108;3.390;2023-05-14T03:41:56;97888.84;;;9.79;100.00
36502;BME280;25393;46.108;3.390;2023-05-14T03:44:24;97924.91;;;9.80;100.00
36502;BME280;25393;46.108;3.390;2023-05-14T03:46:50;97925.22;;;9.69;100.00
36502;BME280;25393;46.108;3.390;2023-05-14T03:49:20;97931.00;;;9.65;100.00
36502;BME280;25393;46.108;3.390;2023-05-14T03:51:50;97912.84;;;9.70;100.00
36502;BME280;25393;46.108;3.390;2023-05-14T03:54:20;97926.06;;;9.78;100.00
36502;BME280;25393;46.108;3.390;2023-05-14T03:56:46;97925.06;;;9.87;100.00
36502;BME280;25393;46.108;3.390;2023-05-14T03:59:15;97919.28;;;9.75;100.00
36502;BME280;25393;46.108;3.390;2023-05-14T04:01:44;97932.34;;;9.77;100.00
36502;BME280;25393;46.108;3.390;2023-05-14T04:04:11;97921.59;;;9.70;100.00
36502;BME280;25393;46.108;3.390;2023-05-14T04:06:37;97938.44;;;9.85;100.00
36502;BME280;25393;46.108;3.390;2023-05-14T04:09:04;97950.19;;;10.07;100.00
36502;BME280;25393;46.108;3.390;2023-05-14T04:11:31;97939.44;;;10.09;100.00
36502;BME280;25393;46.108;3.390;2023-05-14T04:13:57;97936.28;;;10.13;100.00
36502;BME280;25393;46.108;3.390;2023-05-14T04:16:23;97938.78;;;10.15;100.00
36502;BME280;25393;46.108;3.390;2023-05-14T04:18:50;97939.13;;;10.20;100.00
36502;BME280;25393;46.108;3.390;2023-05-14T04:21:17;97931.31;;;10.26;100.00
36502;BME280;25393;46.108;3.390;2023-05-14T04:23:45;97936.59;;;10.34;100.00
36502;BME280;25393;46.108;3.390;2023-05-14T04:26:11;97934.31;;;10.23;100.00
36502;BME280;25393;46.108;3.390;2023-05-14T04:28:38;97951.88;;;10.16;100.00
36502;BME280;25393;46.108;3.390;2023-05-14T04:31:04;97941.59;;;10.13;100.00
36502;BME280;25393;46.108;3.390;2023-05-14T04:33:31;97937.63;;;9.93;100.00
36502;BME280;25393;46.108;3.390;2023-05-14T04:35:57;97954.34;;;10.01;100.00
36502;BME280;25393;46.108;3.390;2023-05-14T04:38:24;97935.97;;;9.84;100.00
36502;BME280;25393;46.108;3.390;2023-05-14T04:40:51;97951.03;;;9.91;100.00
36502;BME280;25393;46.108;3.390;2023-05-14T04:43:17;97946.72;;;9.82;100.00
36502;BME280;25393;46.108;3.390;2023-05-14T04:45:43;97936.31;;;9.65;100.00
36502;BME280;25393;46.108;3.390;2023-05-14T04:48:10;97950.38;;;9.81;100.00
36502;BME280;25393;46.108;3.390;2023-05-14T04:50:37;97943.94;;;9.84;100.00
36502;BME280;25393;46.108;3.390;2023-05-14T04:53:04;97949.38;;;9.82;100.00
36502;BME280;25393;46.108;3.390;2023-05-14T04:55:30;97943.94;;;9.84;100.00
36502;BME280;25393;46.108;3.390;2023-05-14T04:57:56;97948.06;;;9.86;100.00
36502;BME280;25393;46.108;3.390;2023-05-14T05:00:23;97947.06;;;9.95;100.00
36502;BME280;25393;46.108;3.390;2023-05-14T05:02:50;97950.53;;;9.88;100.00
36502;BME280;25393;46.108;3.390;2023-05-14T05:05:18;97955.69;;;9.81;100.00
36502;BME280;25393;46.108;3.390;2023-05-14T05:07:45;97947.06;;;9.79;100.00
36502;BME280;25393;46.108;3.390;2023-05-14T05:10:11;97945.09;;;9.81;100.00
36502;BME280;25393;46.108;3.390;2023-05-14T05:12:38;97943.59;;;9.87;100.00
36502;BME280;25393;46.108;3.390;2023-05-14T05:15:05;97962.28;;;9.85;100.00
36502;BME280;25393;46.108;3.390;2023-05-14T05:17:31;97937.31;;;9.80;100.00
36502;BME280;25393;46.108;3.390;2023-05-14T05:19:58;97955.84;;;9.88;100.00
36502;BME280;25393;46.108;3.390;2023-05-14T05:22:24;97948.72;;;9.80;100.00
36502;BME280;25393;46.108;3.390;2023-05-14T05:24:52;97939.44;;;9.68;100.00
36502;BME280;25393;46.108;3.390;2023-05-14T05:27:19;97958.63;;;9.78;100.00
36502;BME280;25393;46.108;3.390;2023-05-14T05:29:48;97965.94;;;9.84;100.00
36502;BME280;25393;46.108;3.390;2023-05-14T05:32:14;97956.97;;;9.85;100.00
36502;BME280;25393;46.108;3.390;2023-05-14T05:34:41;97954.19;;;9.71;100.00
36502;BME280;25393;46.108;3.390;2023-05-14T05:37:07;97966.25;;;9.73;100.00
36502;BME280;25393;46.108;3.390;2023-05-14T05:39:38;97951.84;;;9.68;100.00
36502;BME280;25393;46.108;3.390;2023-05-14T05:42:05;97952.69;;;9.76;100.00
36502;BME280;25393;46.108;3.390;2023-05-14T05:44:31;97961.78;;;9.82;100.00
36502;BME280;25393;46.108;3.390;2023-05-14T05:46:58;97964.13;;;9.85;100.00
36502;BME280;25393;46.108;3.390;2023-05-14T05:49:25;97961.13;;;9.88;100.00
36502;BME280;25393;46.108;3.390;2023-05-14T05:51:54;97961.31;;;10.02;100.00
36502;BME280;25393;46.108;3.390;2023-05-14T05:54:23;97980.19;;;10.16;100.00
36502;BME280;25393;46.108;3.390;2023-05-14T05:56:53;97982.81;;;10.24;100.00
36502;BME280;25393;46.108;3.390;2023-05-14T05:59:19;97975.03;;;10.30;100.00
36502;BME280;25393;46.108;3.390;2023-05-14T06:01:47;97976.16;;;10.36;100.00
36502;BME280;25393;46.108;3.390;2023-05-14T06:04:13;97974.00;;;10.31;100.00
36502;BME280;25393;46.108;3.390;2023-05-14T06:06:40;97994.22;;;10.40;100.00
36502;BME280;25393;46.108;3.390;2023-05-14T06:09:07;97979.00;;;10.34;100.00
36502;BME280;25393;46.108;3.390;2023-05-14T06:11:34;97984.75;;;10.46;100.00
36502;BME280;25393;46.108;3.390;2023-05-14T06:14:01;97974.16;;;10.46;100.00
36502;BME280;25393;46.108;3.390;2023-05-14T06:16:27;97978.44;;;10.55;100.00
36502;BME280;25393;46.108;3.390;2023-05-14T06:18:54;97982.09;;;10.38;100.00
36502;BME280;25393;46.108;3.390;2023-05-14T06:21:21;97974.84;;;10.32;100.00
36502;BME280;25393;46.108;3.390;2023-05-14T06:23:51;97981.66;;;10.26;100.00
36502;BME280;25393;46.108;3.390;2023-05-14T06:26:20;97980.19;;;10.24;100.00
36502;BME280;25393;46.108;3.390;2023-05-14T06:28:49;97965.59;;;10.20;100.00
36502;BME280;25393;46.108;3.390;2023-05-14T06:31:15;97981.44;;;10.44;100.00
36502;BME280;25393;46.108;3.390;2023-05-14T06:33:42;97967.84;;;10.47;100.00
36502;BME280;25393;46.108;3.390;2023-05-14T06:36:08;97974.56;;;10.74;100.00
36502;BME280;25393;46.108;3.390;2023-05-14T06:38:35;97971.25;;;10.80;100.00
36502;BME280;25393;46.108;3.390;2023-05-14T06:41:02;97985.97;;;10.82;100.00
36502;BME280;25393;46.108;3.390;2023-05-14T06:43:28;97986.47;;;10.78;100.00
36502;BME280;25393;46.108;3.390;2023-05-14T06:45:55;97975.53;;;10.81;100.00
36502;BME280;25393;46.108;3.390;2023-05-14T06:48:25;97960.78;;;10.86;100.00
36502;BME280;25393;46.108;3.390;2023-05-14T06:50:54;97968.78;;;11.09;100.00
36502;BME280;25393;46.108;3.390;2023-05-14T06:53:24;97971.66;;;10.91;100.00
36502;BME280;25393;46.108;3.390;2023-05-14T06:55:51;97978.47;;;10.94;100.00
36502;BME280;25393;46.108;3.390;2023-05-14T06:58:18;97977.31;;;10.88;100.00
36502;BME280;25393;46.108;3.390;2023-05-14T07:00:44;97981.94;;;10.94;100.00
36502;BME280;25393;46.108;3.390;2023-05-14T07:03:11;97981.44;;;10.91;100.00
36502;BME280;25393;46.108;3.390;2023-05-14T07:05:37;97987.44;;;10.85;100.00
36502;BME280;25393;46.108;3.390;2023-05-14T07:08:06;97988.41;;;10.92;100.00
36502;BME280;25393;46.108;3.390;2023-05-14T07:10:32;97982.75;;;10.95;100.00
36502;BME280;25393;46.108;3.390;2023-05-14T07:12:59;97982.72;;;11.03;100.00
36502;BME280;25393;46.108;3.390;2023-05-14T07:15:25;97989.31;;;11.15;100.00
36502;BME280;25393;46.108;3.390;2023-05-14T07:17:55;97988.78;;;11.20;100.00
36502;BME280;25393;46.108;3.390;2023-05-14T07:20:25;97987.81;;;11.43;100.00
36502;BME280;25393;46.108;3.390;2023-05-14T07:22:52;97989.66;;;11.43;100.00
36502;BME280;25393;46.108;3.390;2023-05-14T07:25:19;97989.31;;;11.69;100.00
36502;BME280;25393;46.108;3.390;2023-05-14T07:27:45;97987.56;;;11.84;100.00
36502;BME280;25393;46.108;3.390;2023-05-14T07:30:17;97984.13;;;11.98;100.00
36502;BME280;25393;46.108;3.390;2023-05-14T07:32:43;97986.78;;;12.21;100.00
36502;BME280;25393;46.108;3.390;2023-05-14T07:35:10;97987.84;;;12.12;100.00
36502;BME280;25393;46.108;3.390;2023-05-14T07:37:37;97990.44;;;12.20;100.00
36502;BME280;25393;46.108;3.390;2023-05-14T07:40:04;98000.13;;;12.13;100.00
36502;BME280;25393;46.108;3.390;2023-05-14T07:42:30;98001.13;;;12.12;100.00
36502;BME280;25393;46.108;3.390;2023-05-14T07:45:03;98001.94;;;12.12;100.00
36502;BME280;25393;46.108;3.390;2023-05-14T07:47:30;98009.09;;;12.12;100.00
36502;BME280;25393;46.108;3.390;2023-05-14T07:49:57;97996.78;;;11.96;100.00
36502;BME280;25393;46.108;3.390;2023-05-14T07:52:23;97998.06;;;12.00;100.00
36502;BME280;25393;46.108;3.390;2023-05-14T07:54:50;98000.78;;;11.92;100.00
36502;BME280;25393;46.108;3.390;2023-05-14T07:57:19;97991.59;;;12.02;100.00
36502;BME280;25393;46.108;3.390;2023-05-14T07:59:47;98003.06;;;12.18;100.00
36502;BME280;25393;46.108;3.390;2023-05-14T08:02:14;97997.31;;;12.29;100.00
36502;BME280;25393;46.108;3.390;2023-05-14T08:04:42;97995.22;;;12.24;100.00
36502;BME280;25393;46.108;3.390;2023-05-14T08:07:09;97992.91;;;12.36;100.00
36502;BME280;25393;46.108;3.390;2023-05-14T08:09:36;97998.69;;;12.39;100.00
36502;BME280;25393;46.108;3.390;2023-05-14T08:12:03;97995.59;;;12.36;100.00
36502;BME280;25393;46.108;3.390;2023-05-14T08:14:29;98001.72;;;12.36;100.00
36502;BME280;25393;46.108;3.390;2023-05-14T08:16:56;98000.72;;;12.37;100.00
36502;BME280;25393;46.108;3.390;2023-05-14T08:19:23;98008.22;;;12.34;100.00
36502;BME280;25393;46.108;3.390;2023-05-14T08:21:50;98010.22;;;12.32;100.00
36502;BME280;25393;46.108;3.390;2023-05-14T08:24:18;97994.84;;;12.27;100.00
36502;BME280;25393;46.108;3.390;2023-05-14T08:26:44;97996.31;;;12.30;100.00
36502;BME280;25393;46.108;3.390;2023-05-14T08:29:11;98002.72;;;12.35;100.00
36502;BME280;25393;46.108;3.390;2023-05-14T08:31:41;98003.47;;;12.44;100.00
36502;BME280;25393;46.108;3.390;2023-05-14T08:34:08;98002.59;;;12.66;100.00
36502;BME280;25393;46.108;3.390;2023-05-14T08:36:34;97998.53;;;12.99;100.00
36502;BME280;25393;46.108;3.390;2023-05-14T08:39:01;97989.09;;;13.26;100.00
36502;BME280;25393;46.108;3.390;2023-05-14T08:41:27;97995.06;;;13.64;100.00
36502;BME280;25393;46.108;3.390;2023-05-14T08:46:37;97997.19;;;14.18;100.00
36502;BME280;25393;46.108;3.390;2023-05-14T08:49:09;98002.91;;;14.36;100.00
36502;BME280;25393;46.108;3.390;2023-05-14T08:51:40;97984.09;;;14.44;100.00
36502;BME280;25393;46.108;3.390;2023-05-14T08:54:08;97986.75;;;14.72;100.00
36502;BME280;25393;46.108;3.390;2023-05-14T08:56:35;97985.72;;;14.73;100.00
36502;BME280;25393;46.108;3.390;2023-05-14T08:59:02;97993.53;;;14.74;100.00
36502;BME280;25393;46.108;3.390;2023-05-14T09:01:28;97984.91;;;14.72;100.00
36502;BME280;25393;46.108;3.390;2023-05-14T09:03:55;97993.41;;;14.33;100.00
36502;BME280;25393;46.108;3.390;2023-05-14T09:06:24;97994.72;;;13.95;100.00
36502;BME280;25393;46.108;3.390;2023-05-14T09:09:00;97973.59;;;13.51;100.00
36502;BME280;25393;46.108;3.390;2023-05-14T09:11:26;97991.34;;;13.65;100.00
36502;BME280;25393;46.108;3.390;2023-05-14T09:13:55;97999.28;;;13.80;100.00
36502;BME280;25393;46.108;3.390;2023-05-14T09:16:24;97997.91;;;13.84;100.00
36502;BME280;25393;46.108;3.390;2023-05-14T09:18:54;97998.09;;;14.04;100.00
36502;BME280;25393;46.108;3.390;2023-05-14T09:21:22;97988.16;;;14.19;100.00
36502;BME280;25393;46.108;3.390;2023-05-14T09:23:53;97972.81;;;14.21;100.00
36502;BME280;25393;46.108;3.390;2023-05-14T09:26:23;97977.56;;;14.25;100.00
36502;BME280;25393;46.108;3.390;2023-05-14T09:28:56;97987.25;;;14.33;100.00
36502;BME280;25393;46.108;3.390;2023-05-14T09:31:29;97989.72;;;14.07;100.00
36502;BME280;25393;46.108;3.390;2023-05-14T09:33:57;97978.56;;;13.75;100.00
36502;BME280;25393;46.108;3.390;2023-05-14T09:36:25;97989.25;;;13.39;100.00
36502;BME280;25393;46.108;3.390;2023-05-14T09:38:55;97985.06;;;13.01;100.00
36502;BME280;25393;46.108;3.390;2023-05-14T09:41:25;97995.25;;;12.68;100.00
36502;BME280;25393;46.108;3.390;2023-05-14T09:43:54;97985.91;;;12.72;100.00
36502;BME280;25393;46.108;3.390;2023-05-14T09:46:25;97984.53;;;12.91;100.00
36502;BME280;25393;46.108;3.390;2023-05-14T09:48:55;97990.66;;;13.21;100.00
36502;BME280;25393;46.108;3.390;2023-05-14T09:51:28;97994.03;;;13.44;100.00
36502;BME280;25393;46.108;3.390;2023-05-14T09:53:56;97987.78;;;13.58;100.00
36502;BME280;25393;46.108;3.390;2023-05-14T09:56:23;97990.56;;;13.86;100.00
36502;BME280;25393;46.108;3.390;2023-05-14T09:58:50;97988.00;;;13.99;100.00
36502;BME280;25393;46.108;3.390;2023-05-14T10:01:20;97989.22;;;14.39;100.00
36502;BME280;25393;46.108;3.390;2023-05-14T10:03:53;97988.19;;;15.69;100.00
36502;BME280;25393;46.108;3.390;2023-05-14T10:06:24;97983.97;;;16.08;100.00
36502;BME280;25393;46.108;3.390;2023-05-14T10:08:56;97990.94;;;16.09;95.60
36502;BME280;25393;46.108;3.390;2023-05-14T10:11:30;97992.59;;;16.23;98.11
36502;BME280;25393;46.108;3.390;2023-05-14T10:14:02;97994.66;;;16.27;97.47
36502;BME280;25393;46.108;3.390;2023-05-14T10:16:33;97998.97;;;16.41;96.83
36502;BME280;25393;46.108;3.390;2023-05-14T10:19:07;97990.53;;;16.38;93.74
36502;BME280;25393;46.108;3.390;2023-05-14T10:21:35;97991.34;;;16.65;90.06
36502;BME280;25393;46.108;3.390;2023-05-14T10:24:03;97979.19;;;16.88;88.50
36502;BME280;25393;46.108;3.390;2023-05-14T10:26:31;97984.91;;;17.05;86.38
36502;BME280;25393;46.108;3.390;2023-05-14T10:28:58;97991.78;;;16.62;88.57
36502;BME280;25393;46.108;3.390;2023-05-14T10:36:58;97987.34;;;15.56;94.27
36502;BME280;25393;46.108;3.390;2023-05-14T10:39:51;97983.72;;;15.22;94.66
36502;BME280;25393;46.108;3.390;2023-05-14T10:42:26;97990.34;;;14.58;100.00
36502;BME280;25393;46.108;3.390;2023-05-14T10:44:54;97983.69;;;15.09;100.00
36502;BME280;25393;46.108;3.390;2023-05-14T10:47:24;97981.25;;;15.81;97.87
36502;BME280;25393;46.108;3.390;2023-05-14T10:49:57;97985.81;;;16.33;95.05
36502;BME280;25393;46.108;3.390;2023-05-14T10:52:25;97986.63;;;16.27;92.28
36502;BME280;25393;46.108;3.390;2023-05-14T10:54:56;97990.28;;;15.80;94.57
36502;BME280;25393;46.108;3.390;2023-05-14T10:57:31;97990.66;;;15.58;98.35
36502;BME280;25393;46.108;3.390;2023-05-14T10:59:59;97993.16;;;14.77;100.00
36502;BME280;25393;46.108;3.390;2023-05-14T11:02:34;97975.38;;;14.08;100.00
36502;BME280;25393;46.108;3.390;2023-05-14T11:05:07;97978.03;;;13.65;100.00
36502;BME280;25393;46.108;3.390;2023-05-14T11:07:48;98004.22;;;13.62;100.00
36502;BME280;25393;46.108;3.390;2023-05-14T11:10:16;97992.31;;;13.58;100.00
36502;BME280;25393;46.108;3.390;2023-05-14T11:12:48;97993.41;;;13.63;100.00
36502;BME280;25393;46.108;3.390;2023-05-14T11:15:16;97992.16;;;13.44;100.00
36502;BME280;25393;46.108;3.390;2023-05-14T11:17:44;97992.38;;;13.43;100.00
36502;BME280;25393;46.108;3.390;2023-05-14T11:20:12;97986.84;;;13.44;100.00
36502;BME280;25393;46.108;3.390;2023-05-14T11:22:40;97983.63;;;14.68;100.00
36502;BME280;25393;46.108;3.390;2023-05-14T11:25:08;97981.84;;;15.77;100.00
36502;BME280;25393;46.108;3.390;2023-05-14T11:27:37;97979.28;;;15.42;98.42
36502;BME280;25393;46.108;3.390;2023-05-14T11:30:04;97975.84;;;15.08;100.00
36502;BME280;25393;46.108;3.390;2023-05-14T11:32:37;97979.34;;;15.08;100.00
36502;BME280;25393;46.108;3.390;2023-05-14T11:35:04;97974.94;;;15.41;100.00
36502;BME280;25393;46.108;3.390;2023-05-14T11:37:31;97978.88;;;15.45;100.00
36502;BME280;25393;46.108;3.390;2023-05-14T11:39:58;97963.34;;;15.15;96.95
36502;BME280;25393;46.108;3.390;2023-05-14T11:42:25;97972.84;;;14.83;100.00
36502;BME280;25393;46.108;3.390;2023-05-14T11:44:55;97976.72;;;14.74;100.00
36502;BME280;25393;46.108;3.390;2023-05-14T11:47:22;97978.66;;;14.59;100.00
36502;BME280;25393;46.108;3.390;2023-05-14T11:49:49;97970.41;;;14.54;100.00
36502;BME280;25393;46.108;3.390;2023-05-14T11:52:16;97974.56;;;14.56;100.00
36502;BME280;25393;46.108;3.390;2023-05-14T11:54:45;97974.41;;;14.71;100.00
36502;BME280;25393;46.108;3.390;2023-05-14T11:57:15;97967.22;;;14.37;100.00
36502;BME280;25393;46.108;3.390;2023-05-14T11:59:42;97968.31;;;14.21;100.00
36502;BME280;25393;46.108;3.390;2023-05-14T12:02:16;97975.22;;;14.16;100.00
36502;BME280;25393;46.108;3.390;2023-05-14T12:04:49;97970.69;;;14.10;100.00
36502;BME280;25393;46.108;3.390;2023-05-14T12:07:16;97972.19;;;14.19;100.00
36502;BME280;25393;46.108;3.390;2023-05-14T12:09:45;97958.47;;;14.49;100.00
36502;BME280;25393;46.108;3.390;2023-05-14T12:12:20;97961.50;;;15.15;100.00
36502;BME280;25393;46.108;3.390;2023-05-14T12:14:49;97955.97;;;15.17;100.00
36502;BME280;25393;46.108;3.390;2023-05-14T12:19:43;97955.56;;;14.72;100.00
36502;BME280;25393;46.108;3.390;2023-05-14T12:22:11;97951.34;;;14.57;100.00
36502;BME280;25393;46.108;3.390;2023-05-14T12:24:39;97960.75;;;14.46;100.00
36502;BME280;25393;46.108;3.390;2023-05-14T12:27:06;97947.22;;;14.26;100.00
36502;BME280;25393;46.108;3.390;2023-05-14T12:29:37;97946.41;;;14.26;100.00
36502;BME280;25393;46.108;3.390;2023-05-14T12:32:08;97951.06;;;14.17;100.00
36502;BME280;25393;46.108;3.390;2023-05-14T12:34:35;97947.03;;;14.00;100.00
36502;BME280;25393;46.108;3.390;2023-05-14T12:37:04;97939.78;;;13.94;100.00
36502;BME280;25393;46.108;3.390;2023-05-14T12:39:32;97945.78;;;13.96;100.00
36502;BME280;25393;46.108;3.390;2023-05-14T12:41:59;97915.53;;;14.10;100.00
36502;BME280;25393;46.108;3.390;2023-05-14T12:44:26;97920.78;;;14.25;100.00
36502;BME280;25393;46.108;3.390;2023-05-14T12:46:53;97935.13;;;14.24;100.00
36502;BME280;25393;46.108;3.390;2023-05-14T12:49:20;97927.72;;;13.98;100.00
36502;BME280;25393;46.108;3.390;2023-05-14T12:51:49;97925.78;;;14.07;100.00
36502;BME280;25393;46.108;3.390;2023-05-14T12:54:25;97925.69;;;14.21;100.00
36502;BME280;25393;46.108;3.390;2023-05-14T12:56:52;97914.03;;;14.01;100.00
36502;BME280;25393;46.108;3.390;2023-05-14T12:59:25;97900.69;;;13.73;100.00
36502;BME280;25393;46.108;3.390;2023-05-14T13:01:55;97923.50;;;14.04;100.00
36502;BME280;25393;46.108;3.390;2023-05-14T13:04:22;97907.06;;;14.00;100.00
36502;BME280;25393;46.108;3.390;2023-05-14T13:06:48;97908.94;;;14.06;100.00
36502;BME280;25393;46.108;3.390;2023-05-14T13:09:15;97911.66;;;14.13;100.00
36502;BME280;25393;46.108;3.390;2023-05-14T13:11:41;97912.41;;;14.00;100.00